Bookmark and Share
Track history (hours):
 

Suula

Last reported at 2014-Apr-21 11:22 UTC. Time now 2014-Apr-23 19:07 UTC.
Position N 59°37' E 023°10'.

Length 140 m; draft 6.5 m.

Type: Tanker. MMSI: 230956996.

NotesDate/timePositionNaut miles runAvg speedWind from/ knotsBaromVisibWave heightAir tempDewpointWater temp
2014-Apr-21 11:22N 59°37' E 023°10'1113.2
2014-Apr-21 10:33N 59°40' E 023°31'1413.2
2014-Apr-21 09:32N 59°44' E 023°57'1313.4
2014-Apr-21 08:33N 59°47' E 024°21'1413.8
2014-Apr-21 07:34N 59°50' E 024°48'1713.6
2014-Apr-21 06:19N 59°56' E 025°20'18 0.7
2014-Apr-20 04:18N 60°12' E 025°36'34 9.1
2014-Apr-20 00:34N 59°47' E 024°51'1212.3
2014-Apr-19 23:33N 59°43' E 024°28'1212.3
2014-Apr-19 22:33N 59°39' E 024°05'5 5.1
2014-Apr-19 21:33N 59°38' E 023°55'1413.9
2014-Apr-19 20:33N 59°35' E 023°29'1916.1
2014-Apr-19 19:22N 59°29' E 022°53'  
2014-Apr-17 01:33N 59°39' E 023°21'1515.3
2014-Apr-17 00:33N 59°43' E 023°50'1515.3
2014-Apr-16 23:33N 59°47' E 024°20'1515.4
2014-Apr-16 22:33N 59°50' E 024°50'7 0.3
2014-Apr-15 21:13N 59°48' E 025°02'1015.9
2014-Apr-15 20:33N 59°46' E 024°42'1615.8
2014-Apr-15 19:33N 59°42' E 024°11'1615.6
2014-Apr-15 18:31N 59°37' E 023°41'6315.1
2014-Apr-15 14:19N 59°29' E 021°37'12 6.9
2014-Apr-15 12:34N 59°32' E 021°14'  
2014-Apr-11 15:33N 59°50' E 021°22'1010.3
2014-Apr-11 14:33N 59°39' E 021°22'1513.2
2014-Apr-11 13:27N 59°31' E 021°46'  

Dump ship's entire track history

sailing weather and tide predictions

Suula — OJKZ — position and weather